sensor_id;sensor_type;location;lat;lon;timestamp;noise_LAeq;noise_LA_min;noise_LA_max;noise_LA01;noise_LA95
38366;Laerm;943;51.568;6.998;2023-05-29T00:01:09;39.57;33.60;55.14;;
38366;Laerm;943;51.568;6.998;2023-05-29T00:03:37;37.67;33.24;46.80;;
38366;Laerm;943;51.568;6.998;2023-05-29T00:06:05;37.05;33.59;43.11;;
38366;Laerm;943;51.568;6.998;2023-05-29T00:08:33;37.73;31.86;54.24;;
38366;Laerm;943;51.568;6.998;2023-05-29T00:11:01;42.28;34.73;69.90;;
38366;Laerm;943;51.568;6.998;2023-05-29T00:13:29;38.76;34.62;47.53;;
38366;Laerm;943;51.568;6.998;2023-05-29T00:15:57;39.81;33.91;56.32;;
38366;Laerm;943;51.568;6.998;2023-05-29T00:18:27;38.57;33.35;52.43;;
38366;Laerm;943;51.568;6.998;2023-05-29T00:20:55;37.40;32.59;49.28;;
38366;Laerm;943;51.568;6.998;2023-05-29T00:23:23;37.00;32.97;41.69;;
38366;Laerm;943;51.568;6.998;2023-05-29T00:25:51;44.81;35.05;70.53;;
38366;Laerm;943;51.568;6.998;2023-05-29T00:28:19;37.54;33.90;45.63;;
38366;Laerm;943;51.568;6.998;2023-05-29T00:30:48;36.95;31.60;45.66;;
38366;Laerm;943;51.568;6.998;2023-05-29T00:33:15;42.53;32.07;69.15;;
38366;Laerm;943;51.568;6.998;2023-05-29T00:35:43;42.60;35.18;59.42;;
38366;Laerm;943;51.568;6.998;2023-05-29T00:38:11;40.85;35.42;49.43;;
38366;Laerm;943;51.568;6.998;2023-05-29T00:40:41;45.18;34.46;69.33;;
38366;Laerm;943;51.568;6.998;2023-05-29T00:43:09;60.20;33.14;85.76;;
38366;Laerm;943;51.568;6.998;2023-05-29T00:45:39;50.55;35.13;81.18;;
38366;Laerm;943;51.568;6.998;2023-05-29T00:48:08;38.47;33.76;49.72;;
38366;Laerm;943;51.568;6.998;2023-05-29T00:50:37;41.52;36.31;55.12;;
38366;Laerm;943;51.568;6.998;2023-05-29T00:53:06;63.72;34.08;83.89;;
38366;Laerm;943;51.568;6.998;2023-05-29T00:55:35;40.92;34.70;58.91;;
38366;Laerm;943;51.568;6.998;2023-05-29T00:58:05;42.53;33.13;70.40;;
38366;Laerm;943;51.568;6.998;2023-05-29T01:00:34;50.20;33.44;76.44;;
38366;Laerm;943;51.568;6.998;2023-05-29T01:03:07;62.85;35.97;88.56;;
38366;Laerm;943;51.568;6.998;2023-05-29T01:05:36;53.11;35.01;76.25;;
38366;Laerm;943;51.568;6.998;2023-05-29T01:08:04;54.27;35.48;82.15;;
38366;Laerm;943;51.568;6.998;2023-05-29T01:10:33;40.93;35.48;62.82;;
38366;Laerm;943;51.568;6.998;2023-05-29T01:13:27;55.23;36.96;83.60;;
38366;Laerm;943;51.568;6.998;2023-05-29T01:16:21;57.93;34.93;83.27;;
38366;Laerm;943;51.568;6.998;2023-05-29T01:19:44;57.56;37.31;85.72;;
38366;Laerm;943;51.568;6.998;2023-05-29T01:23:08;66.75;36.59;91.05;;
38366;Laerm;943;51.568;6.998;2023-05-29T01:26:17;57.01;37.55;82.76;;
38366;Laerm;943;51.568;6.998;2023-05-29T01:28:57;47.25;35.85;75.26;;
38366;Laerm;943;51.568;6.998;2023-05-29T01:31:30;43.97;36.02;66.67;;
38366;Laerm;943;51.568;6.998;2023-05-29T01:34:00;40.31;34.34;59.84;;
38366;Laerm;943;51.568;6.998;2023-05-29T01:36:29;55.28;36.39;79.70;;
38366;Laerm;943;51.568;6.998;2023-05-29T01:38:59;45.99;35.39;77.35;;
38366;Laerm;943;51.568;6.998;2023-05-29T01:41:29;51.33;36.63;77.24;;
38366;Laerm;943;51.568;6.998;2023-05-29T01:44:03;45.71;35.39;64.78;;
38366;Laerm;943;51.568;6.998;2023-05-29T01:46:31;41.48;34.58;55.05;;
38366;Laerm;943;51.568;6.998;2023-05-29T01:49:00;53.94;35.68;75.75;;
38366;Laerm;943;51.568;6.998;2023-05-29T01:51:28;52.07;36.40;76.57;;
38366;Laerm;943;51.568;6.998;2023-05-29T01:53:56;39.72;33.38;62.54;;
38366;Laerm;943;51.568;6.998;2023-05-29T01:56:25;49.79;35.76;76.27;;
38366;Laerm;943;51.568;6.998;2023-05-29T01:59:02;49.52;35.91;75.07;;
38366;Laerm;943;51.568;6.998;2023-05-29T02:01:32;60.53;33.78;83.92;;
38366;Laerm;943;51.568;6.998;2023-05-29T02:04:00;40.65;35.26;61.06;;
38366;Laerm;943;51.568;6.998;2023-05-29T02:06:28;38.90;34.73;55.63;;
38366;Laerm;943;51.568;6.998;2023-05-29T02:08:58;40.65;35.18;49.35;;
38366;Laerm;943;51.568;6.998;2023-05-29T02:11:26;48.65;36.28;74.66;;
38366;Laerm;943;51.568;6.998;2023-05-29T02:13:54;47.51;35.20;77.26;;
38366;Laerm;943;51.568;6.998;2023-05-29T02:16:23;51.88;35.77;84.32;;
38366;Laerm;943;51.568;6.998;2023-05-29T02:18:58;42.05;36.39;66.40;;
38366;Laerm;943;51.568;6.998;2023-05-29T02:21:30;51.34;35.54;76.63;;
38366;Laerm;943;51.568;6.998;2023-05-29T02:24:00;46.43;35.33;74.29;;
38366;Laerm;943;51.568;6.998;2023-05-29T02:26:28;50.46;36.75;69.20;;
38366;Laerm;943;51.568;6.998;2023-05-29T02:28:56;51.79;37.04;68.27;;
38366;Laerm;943;51.568;6.998;2023-05-29T02:31:24;46.54;37.64;62.84;;
38366;Laerm;943;51.568;6.998;2023-05-29T02:33:52;50.24;37.86;67.58;;
38366;Laerm;943;51.568;6.998;2023-05-29T02:36:22;54.17;38.76;68.17;;
38366;Laerm;943;51.568;6.998;2023-05-29T02:38:51;54.00;40.29;69.20;;
38366;Laerm;943;51.568;6.998;2023-05-29T02:41:19;54.37;38.37;68.41;;
38366;Laerm;943;51.568;6.998;2023-05-29T02:43:47;51.40;37.59;66.95;;
38366;Laerm;943;51.568;6.998;2023-05-29T02:46:14;50.21;35.96;70.19;;
38366;Laerm;943;51.568;6.998;2023-05-29T02:48:42;51.55;36.08;68.02;;
38366;Laerm;943;51.568;6.998;2023-05-29T02:51:11;52.01;36.50;65.97;;
38366;Laerm;943;51.568;6.998;2023-05-29T02:53:39;51.37;35.54;66.42;;
38366;Laerm;943;51.568;6.998;2023-05-29T02:56:08;53.94;35.08;68.37;;
38366;Laerm;943;51.568;6.998;2023-05-29T02:58:36;52.79;36.46;68.91;;
38366;Laerm;943;51.568;6.998;2023-05-29T03:01:04;50.28;36.88;68.43;;
38366;Laerm;943;51.568;6.998;2023-05-29T03:03:33;54.13;35.99;76.12;;
38366;Laerm;943;51.568;6.998;2023-05-29T03:06:01;51.82;36.58;69.22;;
38366;Laerm;943;51.568;6.998;2023-05-29T03:08:29;42.43;35.74;57.65;;
38366;Laerm;943;51.568;6.998;2023-05-29T03:10:58;50.00;36.08;75.23;;
38366;Laerm;943;51.568;6.998;2023-05-29T03:13:25;44.13;35.39;63.91;;
38366;Laerm;943;51.568;6.998;2023-05-29T03:16:03;47.35;36.90;72.26;;
38366;Laerm;943;51.568;6.998;2023-05-29T03:18:31;56.34;37.70;80.07;;
38366;Laerm;943;51.568;6.998;2023-05-29T03:21:00;52.46;37.44;72.28;;
38366;Laerm;943;51.568;6.998;2023-05-29T03:23:32;50.64;36.83;70.76;;
38366;Laerm;943;51.568;6.998;2023-05-29T03:26:02;46.71;38.31;70.51;;
38366;Laerm;943;51.568;6.998;2023-05-29T03:28:32;50.20;37.53;72.41;;
38366;Laerm;943;51.568;6.998;2023-05-29T03:31:03;49.23;35.64;64.06;;
38366;Laerm;943;51.568;6.998;2023-05-29T03:33:31;49.70;36.88;66.70;;
38366;Laerm;943;51.568;6.998;2023-05-29T03:36:28;49.88;38.31;66.45;;
38366;Laerm;943;51.568;6.998;2023-05-29T03:38:56;49.42;36.04;65.77;;
38366;Laerm;943;51.568;6.998;2023-05-29T03:41:24;44.77;35.42;62.69;;
38366;Laerm;943;51.568;6.998;2023-05-29T03:43:53;43.30;35.47;64.72;;
38366;Laerm;943;51.568;6.998;2023-05-29T03:46:23;51.40;36.36;69.14;;
38366;Laerm;943;51.568;6.998;2023-05-29T03:48:51;48.10;36.94;68.36;;
38366;Laerm;943;51.568;6.998;2023-05-29T03:51:21;44.25;36.57;61.72;;
38366;Laerm;943;51.568;6.998;2023-05-29T03:53:50;48.44;35.90;68.16;;
38366;Laerm;943;51.568;6.998;2023-05-29T03:56:18;47.00;35.91;64.27;;
38366;Laerm;943;51.568;6.998;2023-05-29T03:58:47;44.94;37.20;64.94;;
38366;Laerm;943;51.568;6.998;2023-05-29T04:01:15;44.17;34.83;57.98;;
38366;Laerm;943;51.568;6.998;2023-05-29T04:03:43;48.39;35.42;66.52;;
38366;Laerm;943;51.568;6.998;2023-05-29T04:06:14;49.92;35.67;67.19;;
38366;Laerm;943;51.568;6.998;2023-05-29T04:08:42;50.75;36.45;71.86;;
38366;Laerm;943;51.568;6.998;2023-05-29T04:11:10;51.40;36.28;72.08;;
38366;Laerm;943;51.568;6.998;2023-05-29T04:13:39;50.09;35.83;71.87;;
38366;Laerm;943;51.568;6.998;2023-05-29T04:16:09;50.50;35.96;69.39;;
38366;Laerm;943;51.568;6.998;2023-05-29T04:18:38;42.05;35.54;53.31;;
38366;Laerm;943;51.568;6.998;2023-05-29T04:21:06;42.08;35.99;63.80;;
38366;Laerm;943;51.568;6.998;2023-05-29T04:23:34;45.46;37.04;68.67;;
38366;Laerm;943;51.568;6.998;2023-05-29T04:26:02;46.14;37.08;66.65;;
38366;Laerm;943;51.568;6.998;2023-05-29T04:28:31;42.42;36.85;54.95;;
38366;Laerm;943;51.568;6.998;2023-05-29T04:31:00;48.89;36.08;70.42;;
38366;Laerm;943;51.568;6.998;2023-05-29T04:33:28;51.07;37.09;74.43;;
38366;Laerm;943;51.568;6.998;2023-05-29T04:35:57;45.88;37.45;68.35;;
38366;Laerm;943;51.568;6.998;2023-05-29T04:38:28;42.99;36.11;58.49;;
38366;Laerm;943;51.568;6.998;2023-05-29T04:40:57;41.44;36.39;54.33;;
38366;Laerm;943;51.568;6.998;2023-05-29T04:43:28;40.35;36.58;52.16;;
38366;Laerm;943;51.568;6.998;2023-05-29T04:46:06;43.34;34.43;56.64;;
38366;Laerm;943;51.568;6.998;2023-05-29T04:48:39;55.28;36.04;82.75;;
38366;Laerm;943;51.568;6.998;2023-05-29T04:51:10;57.30;35.77;84.08;;
38366;Laerm;943;51.568;6.998;2023-05-29T04:53:40;40.51;35.46;48.85;;
38366;Laerm;943;51.568;6.998;2023-05-29T04:56:10;38.96;35.42;51.73;;
38366;Laerm;943;51.568;6.998;2023-05-29T04:58:38;41.64;35.65;59.37;;
38366;Laerm;943;51.568;6.998;2023-05-29T05:01:07;39.97;34.77;49.45;;
38366;Laerm;943;51.568;6.998;2023-05-29T05:03:42;60.94;37.28;84.14;;
38366;Laerm;943;51.568;6.998;2023-05-29T05:06:11;49.22;36.59;66.48;;
38366;Laerm;943;51.568;6.998;2023-05-29T05:08:40;50.84;37.13;67.70;;
38366;Laerm;943;51.568;6.998;2023-05-29T05:11:09;49.60;35.84;64.97;;
38366;Laerm;943;51.568;6.998;2023-05-29T05:13:39;49.95;36.76;67.50;;
38366;Laerm;943;51.568;6.998;2023-05-29T05:16:07;56.36;36.31;84.98;;
38366;Laerm;943;51.568;6.998;2023-05-29T05:18:38;48.60;38.23;66.76;;
38366;Laerm;943;51.568;6.998;2023-05-29T05:21:07;52.60;35.92;76.28;;
38366;Laerm;943;51.568;6.998;2023-05-29T05:23:37;51.00;37.38;70.71;;
38366;Laerm;943;51.568;6.998;2023-05-29T05:26:10;47.07;36.19;64.37;;
38366;Laerm;943;51.568;6.998;2023-05-29T05:28:38;50.11;36.61;74.42;;
38366;Laerm;943;51.568;6.998;2023-05-29T05:31:06;47.13;37.34;71.32;;
38366;Laerm;943;51.568;6.998;2023-05-29T05:33:34;45.27;36.92;67.25;;
38366;Laerm;943;51.568;6.998;2023-05-29T05:36:02;51.17;36.18;74.38;;
38366;Laerm;943;51.568;6.998;2023-05-29T05:38:31;50.39;38.27;70.78;;
38366;Laerm;943;51.568;6.998;2023-05-29T05:40:58;50.99;37.35;69.92;;
38366;Laerm;943;51.568;6.998;2023-05-29T05:43:30;53.06;37.24;68.69;;
38366;Laerm;943;51.568;6.998;2023-05-29T05:46:16;50.53;38.18;68.13;;
38366;Laerm;943;51.568;6.998;2023-05-29T05:48:48;49.98;35.88;66.43;;
38366;Laerm;943;51.568;6.998;2023-05-29T05:51:16;49.24;37.16;65.10;;
38366;Laerm;943;51.568;6.998;2023-05-29T05:53:44;50.04;38.81;66.92;;
38366;Laerm;943;51.568;6.998;2023-05-29T05:56:13;51.41;37.59;70.16;;
38366;Laerm;943;51.568;6.998;2023-05-29T05:58:41;51.36;38.30;72.45;;
38366;Laerm;943;51.568;6.998;2023-05-29T06:01:10;50.01;37.53;66.77;;
38366;Laerm;943;51.568;6.998;2023-05-29T06:03:38;58.20;36.02;83.62;;
38366;Laerm;943;51.568;6.998;2023-05-29T06:06:09;49.28;36.39;68.51;;
38366;Laerm;943;51.568;6.998;2023-05-29T06:08:40;50.64;38.02;76.93;;
38366;Laerm;943;51.568;6.998;2023-05-29T06:11:15;43.61;36.85;57.29;;
38366;Laerm;943;51.568;6.998;2023-05-29T06:13:45;52.73;36.98;76.17;;
38366;Laerm;943;51.568;6.998;2023-05-29T06:16:20;53.64;38.35;77.03;;
38366;Laerm;943;51.568;6.998;2023-05-29T06:18:48;46.65;37.38;65.82;;
38366;Laerm;943;51.568;6.998;2023-05-29T06:21:18;42.12;37.57;60.68;;
38366;Laerm;943;51.568;6.998;2023-05-29T06:23:52;40.66;35.77;58.55;;
38366;Laerm;943;51.568;6.998;2023-05-29T06:26:21;42.69;37.60;55.35;;
38366;Laerm;943;51.568;6.998;2023-05-29T06:28:50;49.88;38.31;73.21;;
38366;Laerm;943;51.568;6.998;2023-05-29T06:31:19;44.69;38.33;57.52;;
38366;Laerm;943;51.568;6.998;2023-05-29T06:33:47;45.40;35.86;67.69;;
38366;Laerm;943;51.568;6.998;2023-05-29T06:36:15;43.12;37.03;54.09;;
38366;Laerm;943;51.568;6.998;2023-05-29T06:38:50;44.93;38.75;60.95;;
38366;Laerm;943;51.568;6.998;2023-05-29T06:41:19;44.31;37.52;64.10;;
38366;Laerm;943;51.568;6.998;2023-05-29T06:43:49;42.93;37.70;59.41;;
38366;Laerm;943;51.568;6.998;2023-05-29T06:46:21;52.28;38.71;77.51;;
38366;Laerm;943;51.568;6.998;2023-05-29T06:48:49;49.64;37.63;75.31;;
38366;Laerm;943;51.568;6.998;2023-05-29T06:51:18;43.57;37.58;66.92;;
38366;Laerm;943;51.568;6.998;2023-05-29T06:53:55;44.56;39.09;60.57;;
38366;Laerm;943;51.568;6.998;2023-05-29T06:56:26;67.33;38.88;92.57;;
38366;Laerm;943;51.568;6.998;2023-05-29T06:58:55;48.40;40.02;71.47;;
38366;Laerm;943;51.568;6.998;2023-05-29T07:01:23;49.47;36.51;69.74;;
38366;Laerm;943;51.568;6.998;2023-05-29T07:03:58;45.37;37.25;66.79;;
38366;Laerm;943;51.568;6.998;2023-05-29T07:06:27;51.34;37.29;78.16;;
38366;Laerm;943;51.568;6.998;2023-05-29T07:08:55;59.85;37.31;77.85;;
38366;Laerm;943;51.568;6.998;2023-05-29T07:11:24;62.22;39.86;83.02;;
38366;Laerm;943;51.568;6.998;2023-05-29T07:13:54;46.72;41.28;72.48;;
38366;Laerm;943;51.568;6.998;2023-05-29T07:16:26;48.29;39.18;71.40;;
38366;Laerm;943;51.568;6.998;2023-05-29T07:18:59;44.76;38.13;56.18;;
38366;Laerm;943;51.568;6.998;2023-05-29T07:21:30;50.34;40.09;74.45;;
38366;Laerm;943;51.568;6.998;2023-05-29T07:24:00;64.18;40.14;90.54;;
38366;Laerm;943;51.568;6.998;2023-05-29T07:26:29;61.62;40.24;85.65;;
38366;Laerm;943;51.568;6.998;2023-05-29T07:28:58;65.43;39.78;87.94;;
38366;Laerm;943;51.568;6.998;2023-05-29T07:31:27;60.53;40.51;87.70;;
38366;Laerm;943;51.568;6.998;2023-05-29T07:33:57;45.54;40.45;70.61;;
38366;Laerm;943;51.568;6.998;2023-05-29T07:36:30;49.17;41.77;70.53;;
38366;Laerm;943;51.568;6.998;2023-05-29T07:39:03;70.98;42.06;89.26;;
38366;Laerm;943;51.568;6.998;2023-05-29T07:41:33;47.94;41.05;71.01;;
38366;Laerm;943;51.568;6.998;2023-05-29T07:44:03;56.79;40.12;77.53;;
38366;Laerm;943;51.568;6.998;2023-05-29T07:46:32;62.49;39.91;84.95;;
38366;Laerm;943;51.568;6.998;2023-05-29T07:49:20;58.49;40.81;81.39;;
38366;Laerm;943;51.568;6.998;2023-05-29T07:51:50;61.33;41.72;88.48;;
38366;Laerm;943;51.568;6.998;2023-05-29T07:54:19;61.10;41.99;89.97;;
38366;Laerm;943;51.568;6.998;2023-05-29T07:56:49;65.62;41.24;85.94;;
38366;Laerm;943;51.568;6.998;2023-05-29T07:59:18;46.87;41.63;66.27;;
38366;Laerm;943;51.568;6.998;2023-05-29T08:01:47;50.62;40.16;77.33;;
38366;Laerm;943;51.568;6.998;2023-05-29T08:04:35;55.12;39.91;75.08;;
38366;Laerm;943;51.568;6.998;2023-05-29T08:07:04;61.24;40.92;86.15;;
38366;Laerm;943;51.568;6.998;2023-05-29T08:09:35;58.56;41.88;88.17;;
38366;Laerm;943;51.568;6.998;2023-05-29T08:12:05;66.40;41.34;88.24;;
38366;Laerm;943;51.568;6.998;2023-05-29T08:14:38;50.38;40.51;68.00;;
38366;Laerm;943;51.568;6.998;2023-05-29T08:17:12;56.01;39.95;78.41;;
38366;Laerm;943;51.568;6.998;2023-05-29T08:19:49;47.04;39.55;66.44;;
38366;Laerm;943;51.568;6.998;2023-05-29T08:22:28;64.73;41.23;90.41;;
38366;Laerm;943;51.568;6.998;2023-05-29T08:25:05;45.98;40.36;57.25;;
38366;Laerm;943;51.568;6.998;2023-05-29T08:27:35;52.56;40.54;75.97;;
38366;Laerm;943;51.568;6.998;2023-05-29T08:30:05;49.91;40.19;74.41;;
38366;Laerm;943;51.568;6.998;2023-05-29T08:32:33;47.79;41.17;64.83;;
38366;Laerm;943;51.568;6.998;2023-05-29T08:35:02;47.71;41.24;66.91;;
38366;Laerm;943;51.568;6.998;2023-05-29T08:37:32;47.59;40.30;67.79;;
38366;Laerm;943;51.568;6.998;2023-05-29T08:40:00;53.32;41.82;76.43;;
38366;Laerm;943;51.568;6.998;2023-05-29T08:42:36;55.85;42.05;77.40;;
38366;Laerm;943;51.568;6.998;2023-05-29T08:45:14;65.50;39.29;89.70;;
38366;Laerm;943;51.568;6.998;2023-05-29T08:47:43;54.88;42.02;81.43;;
38366;Laerm;943;51.568;6.998;2023-05-29T08:50:16;50.69;43.15;69.07;;
38366;Laerm;943;51.568;6.998;2023-05-29T08:52:45;51.96;42.07;73.29;;
38366;Laerm;943;51.568;6.998;2023-05-29T08:55:14;45.82;40.13;60.76;;
38366;Laerm;943;51.568;6.998;2023-05-29T08:57:43;48.74;41.23;63.40;;
38366;Laerm;943;51.568;6.998;2023-05-29T09:00:12;56.95;41.41;78.55;;
38366;Laerm;943;51.568;6.998;2023-05-29T09:02:43;58.86;43.86;77.72;;
38366;Laerm;943;51.568;6.998;2023-05-29T09:05:12;48.70;41.65;61.93;;
38366;Laerm;943;51.568;6.998;2023-05-29T09:07:41;76.90;43.01;98.52;;
38366;Laerm;943;51.568;6.998;2023-05-29T09:10:10;64.84;41.07;89.74;;
38366;Laerm;943;51.568;6.998;2023-05-29T09:12:38;47.04;41.95;64.86;;
38366;Laerm;943;51.568;6.998;2023-05-29T09:15:28;47.37;41.11;60.71;;
38366;Laerm;943;51.568;6.998;2023-05-29T09:17:58;55.46;40.15;79.75;;
38366;Laerm;943;51.568;6.998;2023-05-29T09:20:27;51.10;42.01;72.40;;
38366;Laerm;943;51.568;6.998;2023-05-29T09:23:04;60.72;41.11;86.19;;
38366;Laerm;943;51.568;6.998;2023-05-29T09:25:41;57.83;41.39;76.50;;
38366;Laerm;943;51.568;6.998;2023-05-29T09:28:12;55.39;43.54;78.04;;
38366;Laerm;943;51.568;6.998;2023-05-29T09:30:47;56.12;43.38;79.79;;
38366;Laerm;943;51.568;6.998;2023-05-29T09:33:16;51.67;40.37;71.87;;
38366;Laerm;943;51.568;6.998;2023-05-29T09:35:50;58.64;39.83;88.53;;
38366;Laerm;943;51.568;6.998;2023-05-29T09:38:20;61.24;41.01;88.65;;
38366;Laerm;943;51.568;6.998;2023-05-29T09:40:50;58.22;42.28;83.78;;
38366;Laerm;943;51.568;6.998;2023-05-29T09:43:20;48.90;42.03;75.92;;
38366;Laerm;943;51.568;6.998;2023-05-29T09:45:50;48.12;42.04;67.27;;
38366;Laerm;943;51.568;6.998;2023-05-29T09:48:25;48.84;41.39;63.99;;
38366;Laerm;943;51.568;6.998;2023-05-29T09:50:58;54.86;42.22;80.74;;
38366;Laerm;943;51.568;6.998;2023-05-29T09:53:40;52.08;40.28;75.73;;
38366;Laerm;943;51.568;6.998;2023-05-29T09:56:13;50.43;41.40;70.15;;
38366;Laerm;943;51.568;6.998;2023-05-29T09:58:45;50.32;41.15;71.02;;
38366;Laerm;943;51.568;6.998;2023-05-29T10:01:14;45.12;38.68;60.17;;
38366;Laerm;943;51.568;6.998;2023-05-29T10:03:44;50.72;42.47;72.91;;
38366;Laerm;943;51.568;6.998;2023-05-29T10:06:20;46.98;41.46;69.13;;
38366;Laerm;943;51.568;6.998;2023-05-29T10:08:52;53.60;40.97;78.54;;
38366;Laerm;943;51.568;6.998;2023-05-29T10:11:23;49.54;40.98;73.58;;
38366;Laerm;943;51.568;6.998;2023-05-29T10:13:57;51.08;40.81;71.56;;
38366;Laerm;943;51.568;6.998;2023-05-29T10:16:28;50.49;41.54;72.34;;
38366;Laerm;943;51.568;6.998;2023-05-29T10:18:59;48.94;41.20;65.79;;
38366;Laerm;943;51.568;6.998;2023-05-29T10:21:29;53.09;40.34;74.51;;
38366;Laerm;943;51.568;6.998;2023-05-29T10:24:02;46.64;40.78;64.80;;
38366;Laerm;943;51.568;6.998;2023-05-29T10:26:40;45.38;40.84;59.49;;
38366;Laerm;943;51.568;6.998;2023-05-29T10:29:37;47.52;40.22;67.87;;
38366;Laerm;943;51.568;6.998;2023-05-29T10:36:18;53.97;41.99;83.23;;
38366;Laerm;943;51.568;6.998;2023-05-29T10:38:50;50.26;40.51;68.37;;
38366;Laerm;943;51.568;6.998;2023-05-29T10:44:03;56.17;41.04;82.10;;
38366;Laerm;943;51.568;6.998;2023-05-29T10:47:00;56.63;42.06;76.28;;
38366;Laerm;943;51.568;6.998;2023-05-29T10:49:29;49.76;39.48;75.65;;
38366;Laerm;943;51.568;6.998;2023-05-29T10:51:59;46.00;38.96;59.15;;
38366;Laerm;943;51.568;6.998;2023-05-29T10:54:50;51.65;41.76;78.89;;
38366;Laerm;943;51.568;6.998;2023-05-29T10:57:22;47.04;41.08;56.20;;
38366;Laerm;943;51.568;6.998;2023-05-29T11:00:03;51.26;41.32;79.45;;
38366;Laerm;943;51.568;6.998;2023-05-29T11:02:39;49.47;40.83;70.92;;
38366;Laerm;943;51.568;6.998;2023-05-29T11:05:23;45.81;40.69;63.51;;
38366;Laerm;943;51.568;6.998;2023-05-29T11:07:59;47.51;42.08;62.83;;
38366;Laerm;943;51.568;6.998;2023-05-29T11:10:58;53.72;42.06;76.72;;
38366;Laerm;943;51.568;6.998;2023-05-29T11:13:36;51.68;39.28;73.63;;
38366;Laerm;943;51.568;6.998;2023-05-29T11:19:08;48.77;42.30;76.52;;
38366;Laerm;943;51.568;6.998;2023-05-29T11:22:19;47.90;40.62;71.74;;
38366;Laerm;943;51.568;6.998;2023-05-29T11:24:52;46.32;41.38;61.15;;
38366;Laerm;943;51.568;6.998;2023-05-29T11:27:21;45.61;41.00;65.75;;
38366;Laerm;943;51.568;6.998;2023-05-29T11:29:49;50.40;40.09;70.52;;
38366;Laerm;943;51.568;6.998;2023-05-29T11:32:27;52.34;41.04;74.97;;
38366;Laerm;943;51.568;6.998;2023-05-29T11:35:07;58.55;42.05;81.36;;
38366;Laerm;943;51.568;6.998;2023-05-29T11:37:40;60.95;41.72;83.75;;
38366;Laerm;943;51.568;6.998;2023-05-29T11:40:13;51.75;42.68;76.17;;
38366;Laerm;943;51.568;6.998;2023-05-29T11:42:45;47.60;40.61;68.07;;
38366;Laerm;943;51.568;6.998;2023-05-29T11:45:18;47.11;41.08;59.17;;
38366;Laerm;943;51.568;6.998;2023-05-29T11:48:02;50.96;42.29;74.51;;
38366;Laerm;943;51.568;6.998;2023-05-29T11:50:33;50.84;43.04;76.78;;
38366;Laerm;943;51.568;6.998;2023-05-29T11:53:02;51.20;39.61;76.70;;
38366;Laerm;943;51.568;6.998;2023-05-29T11:55:29;46.10;40.75;58.46;;
38366;Laerm;943;51.568;6.998;2023-05-29T11:58:04;54.27;40.95;77.79;;
38366;Laerm;943;51.568;6.998;2023-05-29T12:00:39;56.10;42.08;82.43;;
38366;Laerm;943;51.568;6.998;2023-05-29T12:03:08;56.77;40.21;84.23;;
38366;Laerm;943;51.568;6.998;2023-05-29T12:05:49;56.70;42.01;83.65;;
38366;Laerm;943;51.568;6.998;2023-05-29T12:08:25;60.50;42.80;87.43;;
38366;Laerm;943;51.568;6.998;2023-05-29T12:10:54;50.24;41.30;67.88;;
38366;Laerm;943;51.568;6.998;2023-05-29T12:13:22;51.56;39.84;73.04;;
38366;Laerm;943;51.568;6.998;2023-05-29T12:16:00;56.31;41.57;81.04;;
38366;Laerm;943;51.568;6.998;2023-05-29T12:18:30;48.07;40.38;62.33;;
38366;Laerm;943;51.568;6.998;2023-05-29T12:21:03;54.01;41.82;82.47;;
38366;Laerm;943;51.568;6.998;2023-05-29T12:23:37;50.62;41.07;75.46;;
38366;Laerm;943;51.568;6.998;2023-05-29T12:26:05;47.14;41.43;64.44;;
38366;Laerm;943;51.568;6.998;2023-05-29T12:28:33;46.86;41.71;69.04;;
38366;Laerm;943;51.568;6.998;2023-05-29T12:31:02;54.33;42.74;78.76;;
38366;Laerm;943;51.568;6.998;2023-05-29T12:33:32;56.05;41.08;80.10;;
38366;Laerm;943;51.568;6.998;2023-05-29T12:36:11;50.33;42.15;74.39;;
38366;Laerm;943;51.568;6.998;2023-05-29T12:38:51;64.11;43.22;87.73;;
38366;Laerm;943;51.568;6.998;2023-05-29T12:41:32;53.65;41.35;73.40;;
38366;Laerm;943;51.568;6.998;2023-05-29T12:44:06;62.85;41.83;79.34;;
38366;Laerm;943;51.568;6.998;2023-05-29T12:46:42;73.58;42.01;93.97;;
38366;Laerm;943;51.568;6.998;2023-05-29T12:49:18;72.44;42.48;93.42;;
38366;Laerm;943;51.568;6.998;2023-05-29T12:51:48;52.37;41.37;78.65;;
38366;Laerm;943;51.568;6.998;2023-05-29T12:54:17;49.23;41.13;76.10;;
38366;Laerm;943;51.568;6.998;2023-05-29T12:56:45;56.09;41.17;79.78;;
38366;Laerm;943;51.568;6.998;2023-05-29T12:59:14;49.41;41.13;68.17;;
38366;Laerm;943;51.568;6.998;2023-05-29T13:01:43;50.65;40.94;71.65;;
38366;Laerm;943;51.568;6.998;2023-05-29T13:04:12;48.10;41.93;65.36;;
38366;Laerm;943;51.568;6.998;2023-05-29T13:06:40;53.66;40.80;77.78;;
38366;Laerm;943;51.568;6.998;2023-05-29T13:09:08;63.86;43.95;86.40;;
38366;Laerm;943;51.568;6.998;2023-05-29T13:11:36;51.99;42.93;75.88;;
38366;Laerm;943;51.568;6.998;2023-05-29T13:14:05;50.47;40.56;68.10;;
38366;Laerm;943;51.568;6.998;2023-05-29T13:16:33;47.39;41.78;62.19;;
38366;Laerm;943;51.568;6.998;2023-05-29T13:19:03;48.46;42.28;62.53;;
38366;Laerm;943;51.568;6.998;2023-05-29T13:21:31;49.34;43.10;62.35;;
38366;Laerm;943;51.568;6.998;2023-05-29T13:24:00;58.33;39.68;77.91;;
38366;Laerm;943;51.568;6.998;2023-05-29T13:26:28;47.99;42.00;63.08;;
38366;Laerm;943;51.568;6.998;2023-05-29T13:28:56;50.72;42.53;71.16;;
38366;Laerm;943;51.568;6.998;2023-05-29T13:31:24;51.65;43.65;74.54;;
38366;Laerm;943;51.568;6.998;2023-05-29T13:33:51;53.07;41.29;60.86;;
38366;Laerm;943;51.568;6.998;2023-05-29T13:36:19;48.16;41.12;63.85;;
38366;Laerm;943;51.568;6.998;2023-05-29T13:38:47;46.38;40.81;65.99;;
38366;Laerm;943;51.568;6.998;2023-05-29T13:41:15;49.27;40.50;67.67;;
38366;Laerm;943;51.568;6.998;2023-05-29T13:43:43;50.48;41.98;74.14;;
38366;Laerm;943;51.568;6.998;2023-05-29T13:46:13;49.74;41.92;70.93;;
38366;Laerm;943;51.568;6.998;2023-05-29T13:48:41;47.31;39.86;71.94;;
38366;Laerm;943;51.568;6.998;2023-05-29T13:51:11;45.45;40.45;58.16;;
38366;Laerm;943;51.568;6.998;2023-05-29T13:53:39;49.77;40.86;72.36;;
38366;Laerm;943;51.568;6.998;2023-05-29T13:56:07;53.19;41.36;72.21;;
38366;Laerm;943;51.568;6.998;2023-05-29T13:58:35;71.68;42.34;94.61;;
38366;Laerm;943;51.568;6.998;2023-05-29T14:01:03;52.54;41.73;75.05;;
38366;Laerm;943;51.568;6.998;2023-05-29T14:03:31;52.57;41.84;75.98;;
38366;Laerm;943;51.568;6.998;2023-05-29T14:06:00;53.73;40.58;74.86;;
38366;Laerm;943;51.568;6.998;2023-05-29T14:08:28;50.61;41.22;71.96;;
38366;Laerm;943;51.568;6.998;2023-05-29T14:10:56;50.21;43.21;64.51;;
38366;Laerm;943;51.568;6.998;2023-05-29T14:13:24;55.06;43.11;81.45;;
38366;Laerm;943;51.568;6.998;2023-05-29T14:15:54;61.11;42.98;88.03;;
38366;Laerm;943;51.568;6.998;2023-05-29T14:18:28;57.42;41.97;81.58;;
38366;Laerm;943;51.568;6.998;2023-05-29T14:20:56;73.68;41.93;89.55;;
38366;Laerm;943;51.568;6.998;2023-05-29T14:23:24;51.22;41.73;70.16;;
38366;Laerm;943;51.568;6.998;2023-05-29T14:25:53;74.43;42.04;91.67;;
38366;Laerm;943;51.568;6.998;2023-05-29T14:28:21;58.88;41.53;82.64;;
38366;Laerm;943;51.568;6.998;2023-05-29T14:30:49;47.73;41.62;65.65;;
38366;Laerm;943;51.568;6.998;2023-05-29T14:33:17;50.93;41.44;77.12;;
38366;Laerm;943;51.568;6.998;2023-05-29T14:35:45;49.21;42.58;68.19;;
38366;Laerm;943;51.568;6.998;2023-05-29T14:38:13;53.49;42.05;79.37;;
38366;Laerm;943;51.568;6.998;2023-05-29T14:40:41;55.39;42.76;87.24;;
38366;Laerm;943;51.568;6.998;2023-05-29T14:43:10;59.58;42.37;79.98;;